Sonstiges

Flugwetter

[source: ADDS]
METAR
LOWL 171250Z VRB02KT CAVOK 11/M00 Q1026 NOSIG =
TAF LOWL 171115Z 1712/1812 VRB02KT CAVOK TX09/1714Z TNM03/1805Z TEMPO 1800/1809 4000 BR SCT003 PROB30 TEMPO 1804/1808 0300 FZBCFG BKN002
TAF
TAF LOWL 171115Z 1712/1812 VRB02KT CAVOK TX09/1714Z TNM03/1805Z TEMPO 1800/1809 4000 BR SCT003 PROB30 TEMPO 1804/1808 0300 FZBCFG BKN002 =